createdAt,value
2024-02-03T00:00:39.656Z,11.33
2024-02-03T00:03:06.490Z,12.57
2024-02-03T00:05:33.234Z,13.83
2024-02-03T00:07:59.937Z,9.83
2024-02-03T00:10:26.721Z,11.77
2024-02-03T00:12:53.638Z,14.37
2024-02-03T00:15:22.903Z,12.83
2024-02-03T00:17:49.877Z,11.60
2024-02-03T00:20:16.819Z,10.50
2024-02-03T00:22:47.071Z,12.07
2024-02-03T00:25:13.967Z,9.50
2024-02-03T00:27:40.766Z,10.30
2024-02-03T00:30:08.745Z,9.38
2024-02-03T00:32:35.583Z,13.03
2024-02-03T00:35:02.321Z,10.13
2024-02-03T00:37:29.108Z,12.37
2024-02-03T00:39:55.985Z,11.17
2024-02-03T00:42:22.747Z,9.60
2024-02-03T00:44:49.447Z,9.43
2024-02-03T00:47:16.292Z,9.30
2024-02-03T00:49:45.785Z,10.20
2024-02-03T00:52:12.667Z,8.53
2024-02-03T00:54:39.653Z,8.47
2024-02-03T00:57:08.871Z,11.30
2024-02-03T00:59:36.891Z,7.80
2024-02-03T01:02:04.751Z,9.80
2024-02-03T01:04:31.513Z,10.55
2024-02-03T01:07:00.380Z,9.90
2024-02-03T01:09:27.420Z,8.33
2024-02-03T01:11:55.708Z,10.30
2024-02-03T01:14:22.751Z,9.23
2024-02-03T01:16:50.051Z,14.80
2024-02-03T01:19:18.191Z,12.27
2024-02-03T01:21:45.132Z,14.40
2024-02-03T01:24:11.968Z,13.17
2024-02-03T01:26:38.718Z,16.67
2024-02-03T01:29:05.535Z,15.30
2024-02-03T01:31:32.232Z,19.38
2024-02-03T01:34:00.136Z,18.85
2024-02-03T01:36:27.112Z,17.63
2024-02-03T01:38:54.942Z,13.53
2024-02-03T01:41:21.673Z,14.98
2024-02-03T01:43:48.532Z,12.13
2024-02-03T01:46:17.728Z,15.40
2024-02-03T01:48:44.740Z,21.63
2024-02-03T01:51:13.022Z,21.85
2024-02-03T01:53:40.673Z,20.77
2024-02-03T01:56:07.964Z,20.10
2024-02-03T01:58:34.777Z,21.43
2024-02-03T02:01:01.569Z,17.53
2024-02-03T02:03:28.442Z,20.40
2024-02-03T02:05:55.284Z,21.40
2024-02-03T02:08:32.882Z,28.20
2024-02-03T02:10:59.957Z,28.17
2024-02-03T02:13:27.145Z,113.97
2024-02-03T02:15:53.998Z,133.37
2024-02-03T02:18:21.156Z,73.33
2024-02-03T02:20:48.194Z,52.47
2024-02-03T02:23:14.973Z,44.73
2024-02-03T02:25:41.671Z,56.43
2024-02-03T02:28:08.374Z,51.73
2024-02-03T02:30:35.237Z,36.07
2024-02-03T02:33:03.814Z,36.87
2024-02-03T02:35:30.626Z,34.00
2024-02-03T02:37:57.254Z,32.27
2024-02-03T02:40:23.986Z,27.40
2024-02-03T02:42:50.793Z,29.23
2024-02-03T02:45:17.649Z,26.53
2024-02-03T02:47:54.442Z,16.30
2024-02-03T02:50:21.313Z,15.37
2024-02-03T02:52:47.993Z,7.53
2024-02-03T02:55:15.101Z,8.17
2024-02-03T02:57:41.938Z,6.23
2024-02-03T03:00:11.284Z,7.13
2024-02-03T03:02:38.498Z,8.60
2024-02-03T03:05:05.585Z,8.03
2024-02-03T03:07:32.440Z,7.47
2024-02-03T03:09:59.189Z,5.40
2024-02-03T03:12:26.476Z,6.47
2024-02-03T03:14:53.249Z,4.93
2024-02-03T03:17:20.040Z,4.90
2024-02-03T03:19:47.116Z,5.87
2024-02-03T03:22:14.855Z,4.93
2024-02-03T03:24:43.408Z,6.90
2024-02-03T03:27:10.307Z,5.37
2024-02-03T03:29:38.752Z,5.53
2024-02-03T03:32:05.791Z,6.43
2024-02-03T03:34:32.739Z,7.43
2024-02-03T03:36:59.506Z,6.70
2024-02-03T03:39:26.288Z,10.50
2024-02-03T03:41:55.080Z,10.20
2024-02-03T03:44:22.321Z,10.20
2024-02-03T03:46:49.147Z,8.87
2024-02-03T03:49:15.975Z,9.53
2024-02-03T03:51:42.777Z,12.13
2024-02-03T03:54:09.627Z,11.27
2024-02-03T03:56:36.810Z,12.97
2024-02-03T03:59:03.531Z,13.97
2024-02-03T04:01:30.228Z,11.27
2024-02-03T04:03:58.289Z,9.43
2024-02-03T04:06:25.357Z,13.47
2024-02-03T04:08:52.047Z,14.00
2024-02-03T04:11:18.811Z,12.40
2024-02-03T04:13:46.121Z,19.63
2024-02-03T04:16:12.885Z,23.20
2024-02-03T04:18:39.697Z,18.33
2024-02-03T04:21:06.476Z,22.37
2024-02-03T04:23:33.216Z,18.47
2024-02-03T04:26:00.045Z,18.03
2024-02-03T04:28:26.735Z,22.20
2024-02-03T04:30:56.441Z,19.53
2024-02-03T04:33:23.290Z,16.83
2024-02-03T04:35:50.078Z,18.87
2024-02-03T04:38:16.744Z,25.83
2024-02-03T04:40:43.413Z,21.37
2024-02-03T04:43:10.145Z,29.33
2024-02-03T04:45:36.910Z,26.47
2024-02-03T04:48:03.856Z,29.17
2024-02-03T04:50:30.585Z,22.47
2024-02-03T04:52:58.607Z,18.53
2024-02-03T04:55:25.472Z,24.93
2024-02-03T04:57:52.291Z,24.27
2024-02-03T05:00:19.407Z,22.67
2024-02-03T05:02:46.697Z,19.90
2024-02-03T05:05:13.474Z,22.33
2024-02-03T05:07:40.177Z,23.30
2024-02-03T05:10:07.253Z,21.60
2024-02-03T05:12:34.490Z,25.13
2024-02-03T05:15:04.921Z,60.53
2024-02-03T05:17:32.469Z,39.10
2024-02-03T05:19:59.190Z,32.00
2024-02-03T05:22:25.938Z,35.40
2024-02-03T05:24:52.784Z,25.63
2024-02-03T05:27:20.526Z,24.47
2024-02-03T05:29:47.430Z,24.33
2024-02-03T05:32:14.369Z,24.63
2024-02-03T05:34:41.215Z,27.27
2024-02-03T05:37:08.000Z,28.87
2024-02-03T05:39:34.727Z,31.03
2024-02-03T05:42:01.426Z,34.47
2024-02-03T05:44:28.110Z,36.60
2024-02-03T05:46:54.770Z,39.30
2024-02-03T05:49:21.509Z,47.43
2024-02-03T05:51:48.305Z,40.77
2024-02-03T05:54:15.079Z,41.90
2024-02-03T05:56:42.120Z,33.07
2024-02-03T05:59:26.455Z,38.87
2024-02-03T06:01:56.310Z,37.73
2024-02-03T06:04:25.428Z,38.73
2024-02-03T06:06:52.273Z,41.77
2024-02-03T06:09:20.128Z,57.83
2024-02-03T06:11:46.899Z,55.63
2024-02-03T06:14:13.582Z,19.40
2024-02-03T06:16:40.265Z,28.57
2024-02-03T06:19:07.049Z,35.30
2024-02-03T06:21:34.438Z,43.70
2024-02-03T06:24:01.236Z,44.80
2024-02-03T06:26:31.468Z,50.60
2024-02-03T06:28:58.752Z,41.97
2024-02-03T06:31:27.789Z,36.97
2024-02-03T06:33:54.833Z,29.60
2024-02-03T06:36:23.120Z,30.97
2024-02-03T06:38:49.817Z,40.73
2024-02-03T06:41:19.419Z,42.23
2024-02-03T06:43:46.180Z,43.13
2024-02-03T06:46:14.393Z,44.30
2024-02-03T06:48:41.290Z,45.03
2024-02-03T06:51:07.948Z,46.13
2024-02-03T06:53:35.160Z,46.87
2024-02-03T06:56:01.862Z,41.93
2024-02-03T06:58:30.168Z,40.50
2024-02-03T07:00:57.049Z,47.67
2024-02-03T07:03:24.187Z,60.58
2024-02-03T07:05:50.878Z,49.90
2024-02-03T07:08:17.553Z,39.70
2024-02-03T07:10:44.301Z,35.47
2024-02-03T07:13:10.988Z,21.42
2024-02-03T07:15:38.043Z,23.48
2024-02-03T07:18:05.048Z,16.58
2024-02-03T07:20:33.273Z,18.02
2024-02-03T07:23:00.066Z,18.10
2024-02-03T07:25:27.925Z,15.50
2024-02-03T07:27:54.618Z,14.27
2024-02-03T07:30:21.354Z,23.30
2024-02-03T07:32:48.165Z,22.75
2024-02-03T07:35:14.979Z,14.45
2024-02-03T07:37:41.757Z,15.75
2024-02-03T07:40:09.171Z,14.52
2024-02-03T07:42:37.154Z,13.55
2024-02-03T07:45:04.201Z,14.10
2024-02-03T07:47:31.269Z,12.48
2024-02-03T07:49:57.973Z,10.63
2024-02-03T07:52:32.132Z,9.98
2024-02-03T07:55:04.723Z,8.60
2024-02-03T07:57:31.417Z,11.75
2024-02-03T07:59:58.103Z,13.68
2024-02-03T08:02:25.868Z,10.27
2024-02-03T08:04:52.715Z,19.13
2024-02-03T08:07:19.451Z,12.45
2024-02-03T08:09:47.245Z,12.85
2024-02-03T08:12:13.966Z,13.57
2024-02-03T08:14:40.682Z,12.18
2024-02-03T08:17:08.815Z,14.15
2024-02-03T08:19:38.493Z,12.45
2024-02-03T08:22:05.295Z,15.65
2024-02-03T08:24:31.987Z,14.30
2024-02-03T08:26:58.962Z,22.00
2024-02-03T08:29:26.572Z,22.67
2024-02-03T08:31:54.244Z,16.58
2024-02-03T08:34:23.797Z,13.70
2024-02-03T08:36:50.676Z,14.05
2024-02-03T08:41:47.148Z,9.07
2024-02-03T08:44:13.960Z,8.95
2024-02-03T08:46:40.646Z,10.35
2024-02-03T08:49:07.467Z,15.20
2024-02-03T08:51:34.225Z,8.25
2024-02-03T08:54:01.238Z,8.45
2024-02-03T08:56:28.920Z,9.23
2024-02-03T08:58:55.643Z,9.35
2024-02-03T09:01:22.420Z,9.98
2024-02-03T09:03:54.430Z,10.43
2024-02-03T09:06:21.493Z,7.28
2024-02-03T09:08:49.670Z,6.10
2024-02-03T09:11:18.034Z,6.60
2024-02-03T09:13:45.892Z,6.70
2024-02-03T09:16:12.742Z,6.38
2024-02-03T09:18:40.206Z,6.75
2024-02-03T09:21:11.405Z,5.63
2024-02-03T09:23:41.579Z,5.20
2024-02-03T09:26:10.234Z,4.70
2024-02-03T09:28:39.806Z,4.13
2024-02-03T09:31:07.007Z,5.63
2024-02-03T09:33:34.154Z,5.10
2024-02-03T09:36:05.266Z,4.00
2024-02-03T09:38:31.958Z,8.77
2024-02-03T09:40:59.412Z,4.05
2024-02-03T09:43:27.808Z,4.35
2024-02-03T09:45:54.980Z,6.70
2024-02-03T09:48:24.571Z,7.00
2024-02-03T09:50:52.004Z,6.68
2024-02-03T09:53:18.729Z,7.20
2024-02-03T09:55:46.047Z,4.80
2024-02-03T09:58:12.714Z,8.13
2024-02-03T10:00:39.512Z,2.95
2024-02-03T10:03:17.681Z,3.28
2024-02-03T10:05:44.421Z,3.60
2024-02-03T10:08:11.330Z,5.85
2024-02-03T10:13:17.205Z,4.80
2024-02-03T10:15:45.076Z,3.92
2024-02-03T10:18:11.852Z,9.60
2024-02-03T10:20:38.755Z,4.68
2024-02-03T10:23:08.334Z,3.17
2024-02-03T10:25:36.237Z,8.48
2024-02-03T10:28:05.199Z,3.17
2024-02-03T10:30:39.502Z,9.63
2024-02-03T10:33:07.814Z,7.40
2024-02-03T10:35:36.266Z,5.95
2024-02-03T10:38:03.471Z,5.60
2024-02-03T10:40:35.364Z,3.72
2024-02-03T10:43:03.749Z,6.40
2024-02-03T10:45:32.764Z,3.63
2024-02-03T10:48:03.581Z,2.75
2024-02-03T10:50:46.192Z,4.55
2024-02-03T10:53:38.019Z,3.15
2024-02-03T10:56:07.428Z,4.63
2024-02-03T10:58:34.722Z,7.70
2024-02-03T11:01:22.384Z,4.78
2024-02-03T11:03:50.402Z,2.67
2024-02-03T11:06:31.450Z,2.90
2024-02-03T11:09:15.088Z,2.72
2024-02-03T11:11:42.623Z,6.93
2024-02-03T11:14:17.075Z,3.60
2024-02-03T11:16:44.312Z,6.82
2024-02-03T11:19:12.791Z,8.20
2024-02-03T11:21:45.969Z,3.60
2024-02-03T11:24:12.808Z,3.95
2024-02-03T11:26:39.766Z,3.72
2024-02-03T11:29:10.689Z,3.40
2024-02-03T11:31:37.384Z,2.35
2024-02-03T11:34:04.814Z,2.50
2024-02-03T11:36:31.644Z,3.53
2024-02-03T11:38:58.511Z,3.72
2024-02-03T11:41:25.439Z,4.45
2024-02-03T11:43:52.233Z,4.93
2024-02-03T11:46:19.267Z,6.97
2024-02-03T11:48:48.525Z,6.18
2024-02-03T11:51:16.844Z,3.00
2024-02-03T11:53:44.330Z,3.88
2024-02-03T11:56:11.057Z,4.38
2024-02-03T11:58:42.831Z,5.15
2024-02-03T12:01:11.144Z,5.72
2024-02-03T12:03:38.730Z,4.40
2024-02-03T12:06:06.612Z,4.45
2024-02-03T12:08:33.878Z,5.97
2024-02-03T12:11:00.868Z,4.78
2024-02-03T12:13:37.580Z,5.60
2024-02-03T12:16:05.480Z,4.95
2024-02-03T12:18:32.423Z,6.25
2024-02-03T12:20:59.757Z,6.38
2024-02-03T12:23:29.981Z,6.10
2024-02-03T12:25:56.698Z,5.78
2024-02-03T12:28:26.112Z,4.15
2024-02-03T12:31:00.503Z,5.45
2024-02-03T12:33:27.948Z,4.80
2024-02-03T12:35:54.927Z,5.90
2024-02-03T12:38:22.780Z,5.32
2024-02-03T12:40:49.853Z,4.55
2024-02-03T12:43:16.614Z,6.55
2024-02-03T12:45:43.704Z,6.97
2024-02-03T12:48:10.501Z,5.32
2024-02-03T12:50:37.266Z,5.07
2024-02-03T12:53:04.290Z,6.80
2024-02-03T12:55:31.017Z,4.18
2024-02-03T12:57:59.889Z,4.32
2024-02-03T13:00:26.769Z,9.50
2024-02-03T13:02:56.326Z,6.57
2024-02-03T13:05:24.296Z,8.82
2024-02-03T13:07:54.501Z,9.80
2024-02-03T13:10:21.385Z,10.48
2024-02-03T13:12:48.735Z,6.80
2024-02-03T13:15:16.126Z,23.60
2024-02-03T13:17:43.904Z,12.63
2024-02-03T13:20:11.523Z,5.40
2024-02-03T13:22:38.443Z,7.00
2024-02-03T13:25:05.620Z,8.35
2024-02-03T13:27:32.767Z,2.72
2024-02-03T13:30:01.804Z,3.60
2024-02-03T13:32:28.640Z,10.85
2024-02-03T13:34:57.142Z,6.13
2024-02-03T13:37:23.961Z,8.57
2024-02-03T13:39:51.116Z,8.07
2024-02-03T13:42:17.863Z,4.93
2024-02-03T13:44:44.740Z,3.90
2024-02-03T13:47:11.581Z,14.15
2024-02-03T13:49:38.443Z,21.80
2024-02-03T13:52:06.309Z,10.15
2024-02-03T13:54:33.160Z,13.15
2024-02-03T13:56:59.938Z,9.75
2024-02-03T13:59:29.448Z,12.20
2024-02-03T14:01:56.282Z,8.75
2024-02-03T14:04:23.096Z,9.27
2024-02-03T14:06:49.949Z,7.22
2024-02-03T14:09:16.843Z,9.07
2024-02-03T14:11:50.959Z,8.48
2024-02-03T14:14:23.237Z,8.60
2024-02-03T14:16:51.714Z,11.70
2024-02-03T14:19:18.607Z,15.25
2024-02-03T14:21:47.188Z,10.35
2024-02-03T14:24:14.339Z,7.35
2024-02-03T14:26:41.932Z,7.30
2024-02-03T14:29:10.059Z,7.78
2024-02-03T14:31:36.785Z,11.55
2024-02-03T14:34:03.567Z,12.10
2024-02-03T14:36:31.643Z,8.55
2024-02-03T14:39:02.527Z,7.78
2024-02-03T14:41:29.385Z,18.15
2024-02-03T14:43:56.010Z,19.23
2024-02-03T14:46:22.703Z,13.02
2024-02-03T14:48:50.739Z,28.95
2024-02-03T14:51:17.727Z,19.33
2024-02-03T14:53:44.520Z,11.50
2024-02-03T14:56:12.249Z,13.55
2024-02-03T14:58:39.286Z,11.10
2024-02-03T15:01:13.974Z,12.23
2024-02-03T15:03:40.910Z,10.32
2024-02-03T15:06:08.028Z,13.15
2024-02-03T15:08:35.174Z,6.28
2024-02-03T15:11:02.355Z,7.32
2024-02-03T15:13:29.643Z,11.45
2024-02-03T15:15:56.406Z,14.88
2024-02-03T15:18:27.163Z,15.25
2024-02-03T15:20:54.672Z,14.15
2024-02-03T15:23:21.519Z,12.45
2024-02-03T15:25:49.346Z,15.13
2024-02-03T15:28:16.037Z,19.50
2024-02-03T15:30:42.850Z,14.88
2024-02-03T15:33:10.238Z,17.40
2024-02-03T15:35:47.639Z,23.00
2024-02-03T15:38:14.382Z,7.13
2024-02-03T15:40:41.076Z,12.63
2024-02-03T15:43:07.805Z,17.13
2024-02-03T15:45:34.565Z,15.65
2024-02-03T15:48:02.454Z,14.60
2024-02-03T15:50:31.087Z,16.92
2024-02-03T15:52:58.274Z,17.17
2024-02-03T15:55:29.623Z,23.35
2024-02-03T15:57:57.804Z,39.00
2024-02-03T16:00:26.026Z,149.20
2024-02-03T16:02:53.189Z,41.25
2024-02-03T16:05:20.576Z,37.03
2024-02-03T16:07:47.469Z,54.65
2024-02-03T16:10:14.589Z,19.27
2024-02-03T16:12:42.585Z,21.02
2024-02-03T16:15:10.512Z,16.27
2024-02-03T16:17:37.505Z,32.17
2024-02-03T16:20:06.133Z,61.67
2024-02-03T16:22:33.633Z,64.45
2024-02-03T16:25:02.099Z,76.75
2024-02-03T16:27:29.627Z,59.47
2024-02-03T16:29:57.653Z,65.72
2024-02-03T16:32:24.337Z,68.10
2024-02-03T16:34:53.464Z,78.55
2024-02-03T16:37:20.743Z,78.72
2024-02-03T16:39:47.569Z,61.25
2024-02-03T16:42:14.298Z,54.53
2024-02-03T16:44:40.983Z,48.53
2024-02-03T16:47:08.156Z,53.40
2024-02-03T16:49:35.190Z,63.38
2024-02-03T16:52:02.058Z,65.55
2024-02-03T16:54:28.814Z,99.40
2024-02-03T16:56:57.973Z,110.22
2024-02-03T16:59:25.128Z,96.93
2024-02-03T17:01:52.079Z,98.10
2024-02-03T17:04:19.250Z,91.85
2024-02-03T17:06:49.449Z,82.93
2024-02-03T17:09:18.031Z,83.68
2024-02-03T17:11:46.184Z,83.78
2024-02-03T17:14:15.243Z,92.82
2024-02-03T17:16:42.374Z,102.55
2024-02-03T17:19:09.986Z,97.75
2024-02-03T17:21:37.229Z,47.83
2024-02-03T17:24:04.593Z,69.18
2024-02-03T17:26:35.085Z,48.63
2024-02-03T17:29:03.404Z,56.63
2024-02-03T17:31:31.233Z,29.52
2024-02-03T17:33:58.040Z,29.90
2024-02-03T17:36:24.729Z,65.75
2024-02-03T17:38:52.387Z,48.95
2024-02-03T17:41:20.611Z,76.22
2024-02-03T17:43:47.593Z,95.15
2024-02-03T17:46:18.087Z,86.10
2024-02-03T17:48:45.143Z,87.23
2024-02-03T17:51:13.105Z,100.82
2024-02-03T17:53:40.608Z,88.93
2024-02-03T17:56:08.427Z,90.97
2024-02-03T17:58:35.307Z,67.27
2024-02-03T18:01:02.171Z,153.38
2024-02-03T18:03:29.138Z,117.32
2024-02-03T18:05:55.972Z,103.47
2024-02-03T18:08:22.753Z,89.97
2024-02-03T18:10:49.530Z,103.90
2024-02-03T18:13:16.206Z,106.15
2024-02-03T18:15:42.993Z,115.43
2024-02-03T18:18:12.101Z,116.03
2024-02-03T18:20:40.281Z,130.20
2024-02-03T18:23:08.434Z,99.60
2024-02-03T18:25:42.525Z,107.67
2024-02-03T18:28:09.932Z,101.88
2024-02-03T18:30:39.741Z,112.97
2024-02-03T18:33:06.874Z,110.03
2024-02-03T18:35:33.619Z,110.60
2024-02-03T18:38:02.167Z,117.80
2024-02-03T18:40:29.234Z,128.77
2024-02-03T18:42:56.884Z,126.10
2024-02-03T18:45:24.842Z,123.97
2024-02-03T18:47:53.143Z,132.27
2024-02-03T18:50:19.977Z,108.77
2024-02-03T18:52:46.700Z,86.70
2024-02-03T18:55:13.418Z,100.75
2024-02-03T18:57:40.679Z,87.88
2024-02-03T19:00:08.427Z,121.10
2024-02-03T19:02:35.162Z,86.00
2024-02-03T19:05:02.098Z,97.60
2024-02-03T19:07:31.471Z,93.07
2024-02-03T19:09:58.138Z,81.80
2024-02-03T19:12:25.245Z,88.53
2024-02-03T19:14:52.071Z,91.23
2024-02-03T19:17:18.801Z,72.07
2024-02-03T19:19:45.906Z,73.60
2024-02-03T19:22:14.311Z,76.90
2024-02-03T19:24:41.170Z,78.57
2024-02-03T19:27:07.859Z,75.27
2024-02-03T19:29:34.797Z,46.90
2024-02-03T19:32:04.726Z,71.50
2024-02-03T19:34:32.898Z,60.23
2024-02-03T19:37:00.147Z,61.17
2024-02-03T19:39:27.375Z,68.37
2024-02-03T19:41:59.157Z,63.27
2024-02-03T19:44:25.827Z,62.03
2024-02-03T19:46:52.977Z,74.67
2024-02-03T19:49:20.754Z,65.27
2024-02-03T19:51:47.857Z,73.80
2024-02-03T19:54:14.578Z,67.30
2024-02-03T19:56:41.408Z,75.23
2024-02-03T19:59:08.883Z,76.63
2024-02-03T20:01:37.110Z,86.33
2024-02-03T20:04:04.478Z,65.70
2024-02-03T20:06:39.695Z,85.50
2024-02-03T20:09:07.053Z,67.40
2024-02-03T20:11:34.059Z,67.10
2024-02-03T20:14:00.831Z,68.70
2024-02-03T20:16:27.670Z,59.40
2024-02-03T20:18:57.226Z,63.23
2024-02-03T20:21:24.072Z,85.80
2024-02-03T20:23:50.789Z,93.53
2024-02-03T20:26:19.653Z,119.43
2024-02-03T20:28:46.705Z,151.23
2024-02-03T20:31:13.848Z,165.00
2024-02-03T20:33:41.312Z,105.23
2024-02-03T20:36:11.389Z,113.67
2024-02-03T20:38:40.692Z,117.13
2024-02-03T20:41:07.928Z,101.50
2024-02-03T20:43:36.673Z,89.30
2024-02-03T20:46:03.622Z,82.57
2024-02-03T20:48:30.548Z,93.60
2024-02-03T20:50:57.582Z,86.10
2024-02-03T20:53:32.612Z,98.40
2024-02-03T20:55:59.428Z,89.30
2024-02-03T20:58:26.450Z,110.07
2024-02-03T21:00:53.551Z,96.43
2024-02-03T21:03:20.532Z,95.67
2024-02-03T21:05:47.453Z,96.17
2024-02-03T21:08:17.529Z,96.43
2024-02-03T21:10:44.546Z,77.57
2024-02-03T21:13:13.861Z,73.47
2024-02-03T21:15:45.163Z,89.73
2024-02-03T21:18:16.314Z,92.20
2024-02-03T21:20:43.487Z,98.73
2024-02-03T21:23:13.281Z,100.37
2024-02-03T21:25:40.181Z,92.80
2024-02-03T21:28:07.051Z,91.63
2024-02-03T21:30:34.415Z,93.67
2024-02-03T21:33:01.156Z,97.10
2024-02-03T21:35:27.821Z,80.53
2024-02-03T21:37:55.209Z,43.77
2024-02-03T21:40:21.865Z,20.37
2024-02-03T21:42:48.545Z,10.73
2024-02-03T21:45:15.429Z,58.27
2024-02-03T21:47:42.179Z,50.10
2024-02-03T21:50:10.173Z,55.33
2024-02-03T21:52:39.723Z,50.23
2024-02-03T21:55:06.993Z,36.57
2024-02-03T21:57:33.744Z,42.90
2024-02-03T22:00:00.744Z,28.20
2024-02-03T22:02:27.659Z,28.93
2024-02-03T22:04:54.548Z,48.97
2024-02-03T22:07:23.984Z,58.43
2024-02-03T22:09:50.831Z,58.07
2024-02-03T22:12:17.570Z,56.13
2024-02-03T22:14:44.250Z,47.80
2024-02-03T22:17:11.793Z,44.17
2024-02-03T22:19:38.606Z,86.93
2024-02-03T22:22:06.469Z,58.50
2024-02-03T22:24:35.244Z,64.00
2024-02-03T22:27:02.006Z,65.90
2024-02-03T22:29:29.867Z,63.90
2024-02-03T22:31:58.592Z,57.40
2024-02-03T22:34:25.816Z,54.00
2024-02-03T22:36:52.764Z,48.13
2024-02-03T22:39:19.896Z,37.90
2024-02-03T22:41:46.686Z,51.83
2024-02-03T22:44:13.469Z,50.13
2024-02-03T22:46:40.166Z,47.10
2024-02-03T22:49:06.929Z,48.63
2024-02-03T22:51:34.055Z,57.17
2024-02-03T22:54:00.754Z,56.40
2024-02-03T22:56:27.411Z,48.20
2024-02-03T22:58:54.186Z,47.93
2024-02-03T23:01:22.279Z,52.00
2024-02-03T23:03:50.030Z,38.97
2024-02-03T23:06:17.615Z,41.23
2024-02-03T23:08:45.837Z,43.23
2024-02-03T23:11:13.015Z,37.23
2024-02-03T23:13:40.936Z,33.97
2024-02-03T23:16:08.060Z,45.23
2024-02-03T23:18:35.279Z,72.40
2024-02-03T23:21:05.155Z,58.73
2024-02-03T23:23:35.873Z,35.77
2024-02-03T23:26:03.014Z,34.10
2024-02-03T23:28:32.387Z,35.07
2024-02-03T23:31:02.531Z,44.10
2024-02-03T23:33:29.365Z,37.33
2024-02-03T23:35:56.080Z,36.83
2024-02-03T23:38:23.646Z,42.67
2024-02-03T23:40:50.642Z,29.97
2024-02-03T23:43:17.811Z,43.67
2024-02-03T23:45:44.569Z,34.00
2024-02-03T23:48:11.340Z,33.70
2024-02-03T23:50:38.022Z,27.63
2024-02-03T23:53:04.962Z,27.40
2024-02-03T23:55:31.625Z,29.03
2024-02-03T23:57:58.611Z,28.73
